Hauptseite
METAR-TAF:

METAR-TAF

Flughäfen :

Resistencia, Argentinien

Breite: 27-27S, Länge: 059-03W, Höhe: 53 m

Beobachtung

Neuester Wetterbericht von vor 52 Minuten, um 02:00 UTC
Wind 3 kt aus Süd/Südost
Temperatur 19°C
Luftfeuchtigkeit 94%
Luftdruck 1012 hPa
Sichtweite 10 km oder mehr
Leicht bewölkt in der Höhe von 4300 ft
Aufgelockert bewölkt in der Höhe von 6000 ft

METAR: SARE 180200Z 15003KT 9999 FEW043 SCT060 19/18 Q1012

Zeit: 23:52 (02:52 UTC)

Prognose

Neuester Wetterbericht von vor 3 Stunden und 52 Minuten, um 23:00 UTC
Gültige Prognose vom 18 um 00 UTC bis 18 um 24 UTC
Wind 5 kt aus Südost
Sichtweite 10 km oder mehr
keine Wolken unter 1500 m und keine Kumulonimbus oder Gewitterwolken
Übergehend zu
vom 18 um 12 UTC bis 18 um 14 UTC
Wind 15 kt aus Nord/Nordost

TAF: SARE 172300Z 1800/1824 14005KT CAVOK TX29/1818Z TN17/1810Z BECMG 1812/1814 02015KT

Wetterbeobachtungen und Prognosen von mehr als 4000 Flughäfen (METAR und TAF Bericht).

Die verfügbaren Stationen werden durch gelbe und rote Markierungen auf der Karte dargestellt.

Führen Sie die Maus auf sie, um den Namen der Station zu sehen.

Darauf klicken, um die Beobachtung von Wetterbeobachtungen und Prognosen zu sehen.

Um die Karte zu ändern : klicken Sie auf den grünen Tasten mit einem schwarzen Kreuz Zum Vergrößern, auf den grünen Button mit einem Gedankenstrich zu verkleinern, oder auf die grünen Pfeile für benachbarte Karten.


METAR-TAF: